sensor_id;sensor_type;location;lat;lon;timestamp;P1;durP1;ratioP1;P2;durP2;ratioP2
65045;SDS011;54657;52.022;5.534;2023-08-30T00:00:19;5.38;;;4.88;;
65045;SDS011;54657;52.022;5.534;2023-08-30T00:02:48;5.60;;;4.63;;
65045;SDS011;54657;52.022;5.534;2023-08-30T00:05:13;5.28;;;4.78;;
65045;SDS011;54657;52.022;5.534;2023-08-30T00:07:39;5.55;;;4.68;;
65045;SDS011;54657;52.022;5.534;2023-08-30T00:10:06;7.05;;;5.07;;
65045;SDS011;54657;52.022;5.534;2023-08-30T00:12:32;4.97;;;4.47;;
65045;SDS011;54657;52.022;5.534;2023-08-30T00:14:58;6.47;;;4.85;;
65045;SDS011;54657;52.022;5.534;2023-08-30T00:17:24;5.18;;;4.68;;
65045;SDS011;54657;52.022;5.534;2023-08-30T00:19:50;7.10;;;4.70;;
65045;SDS011;54657;52.022;5.534;2023-08-30T00:22:15;5.75;;;4.35;;
65045;SDS011;54657;52.022;5.534;2023-08-30T00:24:41;5.85;;;4.72;;
65045;SDS011;54657;52.022;5.534;2023-08-30T00:27:07;6.57;;;5.20;;
65045;SDS011;54657;52.022;5.534;2023-08-30T00:29:33;4.55;;;4.15;;
65045;SDS011;54657;52.022;5.534;2023-08-30T00:31:59;5.28;;;4.45;;
65045;SDS011;54657;52.022;5.534;2023-08-30T00:34:24;5.30;;;4.45;;
65045;SDS011;54657;52.022;5.534;2023-08-30T00:36:50;5.30;;;4.68;;
65045;SDS011;54657;52.022;5.534;2023-08-30T00:39:15;6.47;;;4.47;;
65045;SDS011;54657;52.022;5.534;2023-08-30T00:41:41;6.63;;;5.35;;
65045;SDS011;54657;52.022;5.534;2023-08-30T00:44:06;6.95;;;4.57;;
65045;SDS011;54657;52.022;5.534;2023-08-30T00:46:32;5.10;;;4.50;;
65045;SDS011;54657;52.022;5.534;2023-08-30T00:48:59;6.60;;;4.65;;
65045;SDS011;54657;52.022;5.534;2023-08-30T00:51:25;4.93;;;4.50;;
65045;SDS011;54657;52.022;5.534;2023-08-30T00:53:51;5.93;;;4.55;;
65045;SDS011;54657;52.022;5.534;2023-08-30T00:56:23;6.53;;;4.50;;
65045;SDS011;54657;52.022;5.534;2023-08-30T00:58:48;6.57;;;4.55;;
65045;SDS011;54657;52.022;5.534;2023-08-30T01:01:15;5.65;;;4.50;;
65045;SDS011;54657;52.022;5.534;2023-08-30T01:03:41;4.30;;;3.90;;
65045;SDS011;54657;52.022;5.534;2023-08-30T01:06:07;5.53;;;4.22;;
65045;SDS011;54657;52.022;5.534;2023-08-30T01:08:33;4.97;;;4.35;;
65045;SDS011;54657;52.022;5.534;2023-08-30T01:11:03;6.68;;;4.72;;
65045;SDS011;54657;52.022;5.534;2023-08-30T01:13:37;5.75;;;5.07;;
65045;SDS011;54657;52.022;5.534;2023-08-30T01:16:09;5.28;;;4.50;;
65045;SDS011;54657;52.022;5.534;2023-08-30T01:18:36;4.68;;;4.13;;
65045;SDS011;54657;52.022;5.534;2023-08-30T01:21:04;5.55;;;4.97;;
65045;SDS011;54657;52.022;5.534;2023-08-30T01:26:26;6.57;;;5.23;;
65045;SDS011;54657;52.022;5.534;2023-08-30T01:29:14;6.25;;;5.18;;
65045;SDS011;54657;52.022;5.534;2023-08-30T01:31:43;7.28;;;6.22;;
65045;SDS011;54657;52.022;5.534;2023-08-30T01:34:11;5.95;;;5.35;;
65045;SDS011;54657;52.022;5.534;2023-08-30T01:36:38;7.75;;;5.93;;
65045;SDS011;54657;52.022;5.534;2023-08-30T01:39:07;6.15;;;5.55;;
65045;SDS011;54657;52.022;5.534;2023-08-30T01:41:35;5.65;;;5.15;;
65045;SDS011;54657;52.022;5.534;2023-08-30T01:44:01;6.35;;;5.75;;
65045;SDS011;54657;52.022;5.534;2023-08-30T01:46:29;5.60;;;5.07;;
65045;SDS011;54657;52.022;5.534;2023-08-30T01:48:57;6.40;;;5.80;;
65045;SDS011;54657;52.022;5.534;2023-08-30T01:51:23;8.50;;;5.80;;
65045;SDS011;54657;52.022;5.534;2023-08-30T01:53:51;6.38;;;5.57;;
65045;SDS011;54657;52.022;5.534;2023-08-30T01:56:18;6.68;;;5.78;;
65045;SDS011;54657;52.022;5.534;2023-08-30T01:58:44;7.72;;;5.88;;
65045;SDS011;54657;52.022;5.534;2023-08-30T02:01:10;7.53;;;6.15;;
65045;SDS011;54657;52.022;5.534;2023-08-30T02:03:35;8.70;;;5.63;;
65045;SDS011;54657;52.022;5.534;2023-08-30T02:06:06;8.38;;;6.38;;
65045;SDS011;54657;52.022;5.534;2023-08-30T02:08:44;6.78;;;5.70;;
65045;SDS011;54657;52.022;5.534;2023-08-30T02:11:17;7.55;;;6.10;;
65045;SDS011;54657;52.022;5.534;2023-08-30T02:13:47;7.80;;;6.15;;
65045;SDS011;54657;52.022;5.534;2023-08-30T02:16:13;8.80;;;6.85;;
65045;SDS011;54657;52.022;5.534;2023-08-30T02:18:41;8.82;;;6.32;;
65045;SDS011;54657;52.022;5.534;2023-08-30T02:21:06;7.38;;;6.25;;
65045;SDS011;54657;52.022;5.534;2023-08-30T02:23:32;10.48;;;7.32;;
65045;SDS011;54657;52.022;5.534;2023-08-30T02:25:58;8.23;;;6.50;;
65045;SDS011;54657;52.022;5.534;2023-08-30T02:28:24;8.77;;;6.15;;
65045;SDS011;54657;52.022;5.534;2023-08-30T02:30:52;7.28;;;6.45;;
65045;SDS011;54657;52.022;5.534;2023-08-30T02:33:18;7.63;;;6.10;;
65045;SDS011;54657;52.022;5.534;2023-08-30T02:35:44;10.57;;;6.78;;
65045;SDS011;54657;52.022;5.534;2023-08-30T02:38:10;8.43;;;6.75;;
65045;SDS011;54657;52.022;5.534;2023-08-30T02:40:35;7.03;;;5.70;;
65045;SDS011;54657;52.022;5.534;2023-08-30T02:43:01;10.57;;;6.93;;
65045;SDS011;54657;52.022;5.534;2023-08-30T02:45:27;8.98;;;7.57;;
65045;SDS011;54657;52.022;5.534;2023-08-30T02:47:55;8.15;;;6.82;;
65045;SDS011;54657;52.022;5.534;2023-08-30T02:50:22;9.15;;;7.10;;
65045;SDS011;54657;52.022;5.534;2023-08-30T02:52:48;9.15;;;7.72;;
65045;SDS011;54657;52.022;5.534;2023-08-30T02:55:13;7.70;;;6.80;;
65045;SDS011;54657;52.022;5.534;2023-08-30T02:57:39;9.18;;;7.60;;
65045;SDS011;54657;52.022;5.534;2023-08-30T03:00:05;10.13;;;7.93;;
65045;SDS011;54657;52.022;5.534;2023-08-30T03:02:31;10.40;;;7.15;;
65045;SDS011;54657;52.022;5.534;2023-08-30T03:04:58;9.57;;;7.38;;
65045;SDS011;54657;52.022;5.534;2023-08-30T03:07:24;8.85;;;7.95;;
65045;SDS011;54657;52.022;5.534;2023-08-30T03:09:53;11.32;;;7.28;;
65045;SDS011;54657;52.022;5.534;2023-08-30T03:12:19;9.35;;;6.50;;
65045;SDS011;54657;52.022;5.534;2023-08-30T03:14:45;8.05;;;7.10;;
65045;SDS011;54657;52.022;5.534;2023-08-30T03:17:11;9.68;;;7.18;;
65045;SDS011;54657;52.022;5.534;2023-08-30T03:19:36;10.10;;;7.65;;
65045;SDS011;54657;52.022;5.534;2023-08-30T03:22:02;9.35;;;6.82;;
65045;SDS011;54657;52.022;5.534;2023-08-30T03:24:28;8.35;;;7.25;;
65045;SDS011;54657;52.022;5.534;2023-08-30T03:26:53;8.10;;;6.78;;
65045;SDS011;54657;52.022;5.534;2023-08-30T03:29:19;11.82;;;7.53;;
65045;SDS011;54657;52.022;5.534;2023-08-30T03:31:44;7.10;;;6.20;;
65045;SDS011;54657;52.022;5.534;2023-08-30T03:34:10;8.95;;;6.72;;
65045;SDS011;54657;52.022;5.534;2023-08-30T03:36:36;11.13;;;6.82;;
65045;SDS011;54657;52.022;5.534;2023-08-30T03:39:03;10.18;;;6.95;;
65045;SDS011;54657;52.022;5.534;2023-08-30T03:41:28;7.43;;;6.47;;
65045;SDS011;54657;52.022;5.534;2023-08-30T03:43:54;11.27;;;7.20;;
65045;SDS011;54657;52.022;5.534;2023-08-30T03:46:19;7.72;;;6.25;;
65045;SDS011;54657;52.022;5.534;2023-08-30T03:48:45;10.60;;;6.97;;
65045;SDS011;54657;52.022;5.534;2023-08-30T03:51:11;10.20;;;7.43;;
65045;SDS011;54657;52.022;5.534;2023-08-30T03:53:36;9.88;;;7.15;;
65045;SDS011;54657;52.022;5.534;2023-08-30T03:56:02;12.25;;;7.03;;
65045;SDS011;54657;52.022;5.534;2023-08-30T03:58:28;8.05;;;6.18;;
65045;SDS011;54657;52.022;5.534;2023-08-30T04:00:54;9.30;;;6.43;;
65045;SDS011;54657;52.022;5.534;2023-08-30T04:03:19;9.75;;;7.28;;
65045;SDS011;54657;52.022;5.534;2023-08-30T04:05:45;9.35;;;6.25;;
65045;SDS011;54657;52.022;5.534;2023-08-30T04:08:11;8.63;;;6.35;;
65045;SDS011;54657;52.022;5.534;2023-08-30T04:10:40;8.73;;;6.70;;
65045;SDS011;54657;52.022;5.534;2023-08-30T04:13:06;8.95;;;6.85;;
65045;SDS011;54657;52.022;5.534;2023-08-30T04:15:36;8.00;;;6.40;;
65045;SDS011;54657;52.022;5.534;2023-08-30T04:18:03;8.73;;;6.32;;
65045;SDS011;54657;52.022;5.534;2023-08-30T04:20:29;7.35;;;6.35;;
65045;SDS011;54657;52.022;5.534;2023-08-30T04:22:56;8.68;;;7.10;;
65045;SDS011;54657;52.022;5.534;2023-08-30T04:25:23;9.48;;;6.43;;
65045;SDS011;54657;52.022;5.534;2023-08-30T04:27:49;9.90;;;6.40;;
65045;SDS011;54657;52.022;5.534;2023-08-30T04:30:15;8.02;;;6.90;;
65045;SDS011;54657;52.022;5.534;2023-08-30T04:32:41;9.05;;;6.47;;
65045;SDS011;54657;52.022;5.534;2023-08-30T04:35:07;7.63;;;6.15;;
65045;SDS011;54657;52.022;5.534;2023-08-30T04:37:33;8.85;;;6.80;;
65045;SDS011;54657;52.022;5.534;2023-08-30T04:39:59;8.90;;;6.32;;
65045;SDS011;54657;52.022;5.534;2023-08-30T04:42:24;9.32;;;6.75;;
65045;SDS011;54657;52.022;5.534;2023-08-30T04:44:50;8.60;;;6.63;;
65045;SDS011;54657;52.022;5.534;2023-08-30T04:47:17;8.82;;;6.65;;
65045;SDS011;54657;52.022;5.534;2023-08-30T04:49:42;8.80;;;6.47;;
65045;SDS011;54657;52.022;5.534;2023-08-30T04:52:08;11.25;;;7.28;;
65045;SDS011;54657;52.022;5.534;2023-08-30T04:54:34;8.13;;;6.93;;
65045;SDS011;54657;52.022;5.534;2023-08-30T04:56:59;7.85;;;6.78;;
65045;SDS011;54657;52.022;5.534;2023-08-30T04:59:25;7.40;;;6.30;;
65045;SDS011;54657;52.022;5.534;2023-08-30T05:01:50;9.57;;;7.15;;
65045;SDS011;54657;52.022;5.534;2023-08-30T05:04:16;8.70;;;6.85;;
65045;SDS011;54657;52.022;5.534;2023-08-30T05:06:42;9.38;;;6.50;;
65045;SDS011;54657;52.022;5.534;2023-08-30T05:09:08;11.10;;;6.90;;
65045;SDS011;54657;52.022;5.534;2023-08-30T05:11:34;11.07;;;7.50;;
65045;SDS011;54657;52.022;5.534;2023-08-30T05:13:59;9.38;;;6.80;;
65045;SDS011;54657;52.022;5.534;2023-08-30T05:16:25;10.20;;;7.10;;
65045;SDS011;54657;52.022;5.534;2023-08-30T05:18:51;10.00;;;6.95;;
65045;SDS011;54657;52.022;5.534;2023-08-30T05:21:16;9.45;;;6.88;;
65045;SDS011;54657;52.022;5.534;2023-08-30T05:23:42;8.55;;;7.10;;
65045;SDS011;54657;52.022;5.534;2023-08-30T05:26:09;10.63;;;7.47;;
65045;SDS011;54657;52.022;5.534;2023-08-30T05:28:35;9.88;;;7.30;;
65045;SDS011;54657;52.022;5.534;2023-08-30T05:31:00;8.55;;;6.63;;
65045;SDS011;54657;52.022;5.534;2023-08-30T05:33:26;8.45;;;6.80;;
65045;SDS011;54657;52.022;5.534;2023-08-30T05:35:52;9.68;;;7.40;;
65045;SDS011;54657;52.022;5.534;2023-08-30T05:38:17;10.63;;;6.60;;
65045;SDS011;54657;52.022;5.534;2023-08-30T05:40:43;9.02;;;7.15;;
65045;SDS011;54657;52.022;5.534;2023-08-30T05:43:10;10.57;;;7.25;;
65045;SDS011;54657;52.022;5.534;2023-08-30T05:45:36;8.98;;;7.35;;
65045;SDS011;54657;52.022;5.534;2023-08-30T05:48:02;8.73;;;7.45;;
65045;SDS011;54657;52.022;5.534;2023-08-30T05:50:28;10.57;;;7.53;;
65045;SDS011;54657;52.022;5.534;2023-08-30T05:52:53;11.48;;;7.68;;
65045;SDS011;54657;52.022;5.534;2023-08-30T05:55:19;9.40;;;6.50;;
65045;SDS011;54657;52.022;5.534;2023-08-30T05:57:45;8.98;;;6.50;;
65045;SDS011;54657;52.022;5.534;2023-08-30T06:00:11;7.22;;;5.13;;
65045;SDS011;54657;52.022;5.534;2023-08-30T06:02:38;12.10;;;7.28;;
65045;SDS011;54657;52.022;5.534;2023-08-30T06:05:04;11.00;;;7.22;;
65045;SDS011;54657;52.022;5.534;2023-08-30T06:07:29;9.40;;;6.88;;
65045;SDS011;54657;52.022;5.534;2023-08-30T06:09:55;9.52;;;6.43;;
65045;SDS011;54657;52.022;5.534;2023-08-30T06:12:21;10.52;;;7.40;;
65045;SDS011;54657;52.022;5.534;2023-08-30T06:14:46;11.05;;;6.70;;
65045;SDS011;54657;52.022;5.534;2023-08-30T06:17:16;11.23;;;7.30;;
65045;SDS011;54657;52.022;5.534;2023-08-30T06:19:42;10.05;;;7.45;;
65045;SDS011;54657;52.022;5.534;2023-08-30T06:22:08;7.85;;;6.90;;
65045;SDS011;54657;52.022;5.534;2023-08-30T06:24:34;8.60;;;7.28;;
65045;SDS011;54657;52.022;5.534;2023-08-30T06:26:59;7.30;;;6.60;;
65045;SDS011;54657;52.022;5.534;2023-08-30T06:29:25;7.70;;;6.47;;
65045;SDS011;54657;52.022;5.534;2023-08-30T06:31:50;9.05;;;7.22;;
65045;SDS011;54657;52.022;5.534;2023-08-30T06:34:16;9.35;;;7.60;;
65045;SDS011;54657;52.022;5.534;2023-08-30T06:36:42;11.48;;;7.68;;
65045;SDS011;54657;52.022;5.534;2023-08-30T06:39:07;11.80;;;7.40;;
65045;SDS011;54657;52.022;5.534;2023-08-30T06:41:33;8.43;;;6.53;;
65045;SDS011;54657;52.022;5.534;2023-08-30T06:43:58;9.77;;;7.18;;
65045;SDS011;54657;52.022;5.534;2023-08-30T06:46:24;10.38;;;7.13;;
65045;SDS011;54657;52.022;5.534;2023-08-30T06:48:49;9.13;;;7.05;;
65045;SDS011;54657;52.022;5.534;2023-08-30T06:51:15;7.78;;;6.88;;
65045;SDS011;54657;52.022;5.534;2023-08-30T06:53:41;9.52;;;7.40;;
65045;SDS011;54657;52.022;5.534;2023-08-30T06:56:06;8.65;;;6.72;;
65045;SDS011;54657;52.022;5.534;2023-08-30T06:58:32;9.07;;;7.70;;
65045;SDS011;54657;52.022;5.534;2023-08-30T07:00:57;11.52;;;7.32;;
65045;SDS011;54657;52.022;5.534;2023-08-30T07:03:23;9.80;;;6.53;;
65045;SDS011;54657;52.022;5.534;2023-08-30T07:05:52;8.13;;;7.25;;
65045;SDS011;54657;52.022;5.534;2023-08-30T07:08:18;8.57;;;7.40;;
65045;SDS011;54657;52.022;5.534;2023-08-30T07:10:44;10.63;;;7.43;;
65045;SDS011;54657;52.022;5.534;2023-08-30T07:13:09;8.43;;;7.18;;
65045;SDS011;54657;52.022;5.534;2023-08-30T07:15:36;8.85;;;6.68;;
65045;SDS011;54657;52.022;5.534;2023-08-30T07:18:06;9.60;;;7.13;;
65045;SDS011;54657;52.022;5.534;2023-08-30T07:20:32;9.27;;;7.13;;
65045;SDS011;54657;52.022;5.534;2023-08-30T07:22:58;8.38;;;6.55;;
65045;SDS011;54657;52.022;5.534;2023-08-30T07:25:24;9.43;;;7.45;;
65045;SDS011;54657;52.022;5.534;2023-08-30T07:27:50;11.63;;;7.25;;
65045;SDS011;54657;52.022;5.534;2023-08-30T07:30:16;8.50;;;7.18;;
65045;SDS011;54657;52.022;5.534;2023-08-30T07:32:41;7.15;;;6.22;;
65045;SDS011;54657;52.022;5.534;2023-08-30T07:35:07;7.90;;;6.38;;
65045;SDS011;54657;52.022;5.534;2023-08-30T07:37:34;8.65;;;7.45;;
65045;SDS011;54657;52.022;5.534;2023-08-30T07:40:00;7.82;;;6.63;;
65045;SDS011;54657;52.022;5.534;2023-08-30T07:42:26;8.27;;;7.30;;
65045;SDS011;54657;52.022;5.534;2023-08-30T07:44:52;8.05;;;6.60;;
65045;SDS011;54657;52.022;5.534;2023-08-30T07:47:17;8.15;;;6.68;;
65045;SDS011;54657;52.022;5.534;2023-08-30T07:49:43;8.65;;;7.40;;
65045;SDS011;54657;52.022;5.534;2023-08-30T07:52:09;9.68;;;7.00;;
65045;SDS011;54657;52.022;5.534;2023-08-30T07:54:36;8.02;;;6.07;;
65045;SDS011;54657;52.022;5.534;2023-08-30T07:57:02;10.00;;;6.93;;
65045;SDS011;54657;52.022;5.534;2023-08-30T07:59:28;6.90;;;5.55;;
65045;SDS011;54657;52.022;5.534;2023-08-30T08:01:54;6.45;;;5.53;;
65045;SDS011;54657;52.022;5.534;2023-08-30T08:04:20;9.68;;;5.78;;
65045;SDS011;54657;52.022;5.534;2023-08-30T08:06:46;7.72;;;5.05;;
65045;SDS011;54657;52.022;5.534;2023-08-30T08:09:12;7.78;;;5.30;;
65045;SDS011;54657;52.022;5.534;2023-08-30T08:11:37;7.25;;;5.43;;
65045;SDS011;54657;52.022;5.534;2023-08-30T08:14:04;7.57;;;4.85;;
65045;SDS011;54657;52.022;5.534;2023-08-30T08:16:30;5.43;;;4.55;;
65045;SDS011;54657;52.022;5.534;2023-08-30T08:18:56;6.00;;;5.40;;
65045;SDS011;54657;52.022;5.534;2023-08-30T08:21:24;6.85;;;5.43;;
65045;SDS011;54657;52.022;5.534;2023-08-30T08:23:49;6.55;;;5.50;;
65045;SDS011;54657;52.022;5.534;2023-08-30T08:26:15;7.75;;;5.25;;
65045;SDS011;54657;52.022;5.534;2023-08-30T08:28:40;8.50;;;5.47;;
65045;SDS011;54657;52.022;5.534;2023-08-30T08:31:07;8.63;;;4.72;;
65045;SDS011;54657;52.022;5.534;2023-08-30T08:33:33;7.20;;;4.90;;
65045;SDS011;54657;52.022;5.534;2023-08-30T08:35:58;6.15;;;4.60;;
65045;SDS011;54657;52.022;5.534;2023-08-30T08:38:24;6.35;;;5.07;;
65045;SDS011;54657;52.022;5.534;2023-08-30T08:40:50;8.68;;;4.70;;
65045;SDS011;54657;52.022;5.534;2023-08-30T08:43:25;6.75;;;4.85;;
65045;SDS011;54657;52.022;5.534;2023-08-30T08:45:53;5.57;;;4.90;;
65045;SDS011;54657;52.022;5.534;2023-08-30T08:48:24;7.90;;;4.65;;
65045;SDS011;54657;52.022;5.534;2023-08-30T08:50:53;6.72;;;5.55;;
65045;SDS011;54657;52.022;5.534;2023-08-30T08:53:19;8.23;;;5.30;;
65045;SDS011;54657;52.022;5.534;2023-08-30T08:55:45;7.32;;;5.15;;
65045;SDS011;54657;52.022;5.534;2023-08-30T08:58:12;5.80;;;5.20;;
65045;SDS011;54657;52.022;5.534;2023-08-30T09:00:39;5.82;;;5.10;;
65045;SDS011;54657;52.022;5.534;2023-08-30T09:03:07;5.40;;;4.70;;
65045;SDS011;54657;52.022;5.534;2023-08-30T09:05:33;6.85;;;5.80;;
65045;SDS011;54657;52.022;5.534;2023-08-30T09:08:02;7.25;;;5.43;;
65045;SDS011;54657;52.022;5.534;2023-08-30T09:10:29;5.72;;;5.10;;
65045;SDS011;54657;52.022;5.534;2023-08-30T09:12:56;6.45;;;5.68;;
65045;SDS011;54657;52.022;5.534;2023-08-30T09:15:21;8.82;;;5.32;;
65045;SDS011;54657;52.022;5.534;2023-08-30T09:17:47;7.90;;;5.03;;
65045;SDS011;54657;52.022;5.534;2023-08-30T09:20:13;5.88;;;4.90;;
65045;SDS011;54657;52.022;5.534;2023-08-30T09:22:39;6.18;;;4.90;;
65045;SDS011;54657;52.022;5.534;2023-08-30T09:25:09;6.65;;;5.28;;
65045;SDS011;54657;52.022;5.534;2023-08-30T09:27:36;5.80;;;4.93;;
65045;SDS011;54657;52.022;5.534;2023-08-30T09:30:04;6.38;;;5.25;;
65045;SDS011;54657;52.022;5.534;2023-08-30T09:32:30;7.50;;;5.25;;
65045;SDS011;54657;52.022;5.534;2023-08-30T09:34:56;6.05;;;5.47;;
65045;SDS011;54657;52.022;5.534;2023-08-30T09:37:22;7.25;;;5.07;;
65045;SDS011;54657;52.022;5.534;2023-08-30T09:39:51;5.45;;;4.95;;
65045;SDS011;54657;52.022;5.534;2023-08-30T09:42:17;6.05;;;5.07;;
65045;SDS011;54657;52.022;5.534;2023-08-30T09:44:43;5.50;;;4.57;;
65045;SDS011;54657;52.022;5.534;2023-08-30T09:47:08;7.13;;;4.95;;
65045;SDS011;54657;52.022;5.534;2023-08-30T09:49:37;5.55;;;5.03;;
65045;SDS011;54657;52.022;5.534;2023-08-30T09:52:08;5.88;;;4.72;;
65045;SDS011;54657;52.022;5.534;2023-08-30T09:54:34;6.22;;;5.05;;
65045;SDS011;54657;52.022;5.534;2023-08-30T09:57:01;7.28;;;5.75;;
65045;SDS011;54657;52.022;5.534;2023-08-30T09:59:27;5.95;;;5.35;;
65045;SDS011;54657;52.022;5.534;2023-08-30T10:01:53;6.20;;;5.60;;
65045;SDS011;54657;52.022;5.534;2023-08-30T10:04:20;6.40;;;5.70;;
65045;SDS011;54657;52.022;5.534;2023-08-30T10:06:46;6.03;;;5.38;;
65045;SDS011;54657;52.022;5.534;2023-08-30T10:09:12;6.10;;;5.53;;
65045;SDS011;54657;52.022;5.534;2023-08-30T10:11:40;6.68;;;6.05;;
65045;SDS011;54657;52.022;5.534;2023-08-30T10:14:06;6.95;;;6.15;;
65045;SDS011;54657;52.022;5.534;2023-08-30T10:16:48;6.70;;;6.10;;
65045;SDS011;54657;52.022;5.534;2023-08-30T10:19:15;7.28;;;6.68;;
65045;SDS011;54657;52.022;5.534;2023-08-30T10:21:44;7.50;;;6.82;;
65045;SDS011;54657;52.022;5.534;2023-08-30T10:24:14;6.55;;;5.88;;
65045;SDS011;54657;52.022;5.534;2023-08-30T10:26:42;9.50;;;6.80;;
65045;SDS011;54657;52.022;5.534;2023-08-30T10:29:10;7.20;;;6.60;;
65045;SDS011;54657;52.022;5.534;2023-08-30T10:31:37;6.82;;;6.22;;
65045;SDS011;54657;52.022;5.534;2023-08-30T10:34:11;7.85;;;7.15;;
65045;SDS011;54657;52.022;5.534;2023-08-30T10:36:42;7.05;;;6.45;;
65045;SDS011;54657;52.022;5.534;2023-08-30T10:39:12;8.25;;;7.50;;
65045;SDS011;54657;52.022;5.534;2023-08-30T10:41:53;7.80;;;7.13;;
65045;SDS011;54657;52.022;5.534;2023-08-30T10:44:22;7.00;;;6.40;;
65045;SDS011;54657;52.022;5.534;2023-08-30T10:46:54;6.57;;;6.07;;
65045;SDS011;54657;52.022;5.534;2023-08-30T10:49:21;6.38;;;5.82;;
65045;SDS011;54657;52.022;5.534;2023-08-30T10:51:57;5.75;;;5.25;;
65045;SDS011;54657;52.022;5.534;2023-08-30T10:54:23;6.47;;;5.88;;
65045;SDS011;54657;52.022;5.534;2023-08-30T10:56:56;6.40;;;5.80;;
65045;SDS011;54657;52.022;5.534;2023-08-30T10:59:24;6.22;;;4.95;;
65045;SDS011;54657;52.022;5.534;2023-08-30T11:01:50;4.90;;;4.50;;
65045;SDS011;54657;52.022;5.534;2023-08-30T11:04:17;5.05;;;4.55;;
65045;SDS011;54657;52.022;5.534;2023-08-30T11:06:44;4.32;;;3.88;;
65045;SDS011;54657;52.022;5.534;2023-08-30T11:09:15;4.65;;;3.83;;
65045;SDS011;54657;52.022;5.534;2023-08-30T11:11:45;6.38;;;3.33;;
65045;SDS011;54657;52.022;5.534;2023-08-30T11:14:11;3.47;;;3.17;;
65045;SDS011;54657;52.022;5.534;2023-08-30T11:16:38;4.10;;;3.30;;
65045;SDS011;54657;52.022;5.534;2023-08-30T11:19:04;3.92;;;3.53;;
65045;SDS011;54657;52.022;5.534;2023-08-30T11:21:32;3.88;;;3.28;;
65045;SDS011;54657;52.022;5.534;2023-08-30T11:23:58;3.53;;;3.15;;
65045;SDS011;54657;52.022;5.534;2023-08-30T11:26:24;3.35;;;3.05;;
65045;SDS011;54657;52.022;5.534;2023-08-30T11:28:50;3.83;;;2.97;;
65045;SDS011;54657;52.022;5.534;2023-08-30T11:31:24;3.40;;;2.70;;
65045;SDS011;54657;52.022;5.534;2023-08-30T11:33:53;5.50;;;2.45;;
65045;SDS011;54657;52.022;5.534;2023-08-30T11:36:21;4.00;;;2.28;;
65045;SDS011;54657;52.022;5.534;2023-08-30T11:38:48;4.38;;;2.35;;
65045;SDS011;54657;52.022;5.534;2023-08-30T11:41:17;3.28;;;1.90;;
65045;SDS011;54657;52.022;5.534;2023-08-30T11:43:44;3.33;;;1.95;;
65045;SDS011;54657;52.022;5.534;2023-08-30T11:46:10;3.70;;;2.00;;
65045;SDS011;54657;52.022;5.534;2023-08-30T11:48:37;4.20;;;2.70;;
65045;SDS011;54657;52.022;5.534;2023-08-30T11:51:04;5.53;;;2.10;;
65045;SDS011;54657;52.022;5.534;2023-08-30T11:53:30;4.35;;;2.00;;
65045;SDS011;54657;52.022;5.534;2023-08-30T11:55:57;5.20;;;1.88;;
65045;SDS011;54657;52.022;5.534;2023-08-30T11:58:22;4.88;;;2.25;;
65045;SDS011;54657;52.022;5.534;2023-08-30T12:00:52;8.23;;;2.70;;
65045;SDS011;54657;52.022;5.534;2023-08-30T12:03:19;4.32;;;2.00;;
65045;SDS011;54657;52.022;5.534;2023-08-30T12:05:46;4.65;;;2.08;;
65045;SDS011;54657;52.022;5.534;2023-08-30T12:08:18;3.95;;;2.20;;
65045;SDS011;54657;52.022;5.534;2023-08-30T12:10:52;5.57;;;1.90;;
65045;SDS011;54657;52.022;5.534;2023-08-30T12:13:25;5.40;;;1.80;;
65045;SDS011;54657;52.022;5.534;2023-08-30T12:15:52;5.03;;;2.33;;
65045;SDS011;54657;52.022;5.534;2023-08-30T12:18:22;4.25;;;2.05;;
65045;SDS011;54657;52.022;5.534;2023-08-30T12:20:54;6.50;;;2.40;;
65045;SDS011;54657;52.022;5.534;2023-08-30T12:23:21;3.78;;;1.98;;
65045;SDS011;54657;52.022;5.534;2023-08-30T12:26:01;4.78;;;1.90;;
65045;SDS011;54657;52.022;5.534;2023-08-30T12:31:00;6.22;;;2.35;;
65045;SDS011;54657;52.022;5.534;2023-08-30T12:33:26;7.80;;;2.15;;
65045;SDS011;54657;52.022;5.534;2023-08-30T12:35:53;6.43;;;1.83;;
65045;SDS011;54657;52.022;5.534;2023-08-30T12:38:20;6.47;;;1.92;;
65045;SDS011;54657;52.022;5.534;2023-08-30T12:40:46;4.93;;;1.98;;
65045;SDS011;54657;52.022;5.534;2023-08-30T12:43:14;6.32;;;2.15;;
65045;SDS011;54657;52.022;5.534;2023-08-30T12:45:40;5.43;;;2.05;;
65045;SDS011;54657;52.022;5.534;2023-08-30T12:48:07;6.80;;;1.90;;
65045;SDS011;54657;52.022;5.534;2023-08-30T12:50:34;8.18;;;2.20;;
65045;SDS011;54657;52.022;5.534;2023-08-30T12:53:00;5.13;;;1.80;;
65045;SDS011;54657;52.022;5.534;2023-08-30T12:55:27;5.35;;;2.05;;
65045;SDS011;54657;52.022;5.534;2023-08-30T12:57:53;8.43;;;2.00;;
65045;SDS011;54657;52.022;5.534;2023-08-30T13:00:18;6.35;;;2.05;;
65045;SDS011;54657;52.022;5.534;2023-08-30T13:02:44;8.02;;;2.03;;
65045;SDS011;54657;52.022;5.534;2023-08-30T13:05:10;6.40;;;1.98;;
65045;SDS011;54657;52.022;5.534;2023-08-30T13:07:36;7.50;;;1.73;;
65045;SDS011;54657;52.022;5.534;2023-08-30T13:10:02;6.75;;;2.20;;
65045;SDS011;54657;52.022;5.534;2023-08-30T13:12:33;6.78;;;1.90;;
65045;SDS011;54657;52.022;5.534;2023-08-30T13:14:59;7.53;;;1.70;;
65045;SDS011;54657;52.022;5.534;2023-08-30T13:17:24;5.25;;;1.88;;
65045;SDS011;54657;52.022;5.534;2023-08-30T13:19:50;4.50;;;1.83;;
65045;SDS011;54657;52.022;5.534;2023-08-30T13:22:16;5.50;;;1.60;;
65045;SDS011;54657;52.022;5.534;2023-08-30T13:24:43;7.15;;;1.70;;
65045;SDS011;54657;52.022;5.534;2023-08-30T13:27:09;5.97;;;1.88;;
65045;SDS011;54657;52.022;5.534;2023-08-30T13:29:35;5.63;;;1.90;;
65045;SDS011;54657;52.022;5.534;2023-08-30T13:32:01;6.35;;;2.00;;
65045;SDS011;54657;52.022;5.534;2023-08-30T13:34:26;4.03;;;1.90;;
65045;SDS011;54657;52.022;5.534;2023-08-30T13:36:52;6.05;;;2.05;;
65045;SDS011;54657;52.022;5.534;2023-08-30T13:39:17;7.22;;;2.03;;
65045;SDS011;54657;52.022;5.534;2023-08-30T13:41:45;4.90;;;1.88;;
65045;SDS011;54657;52.022;5.534;2023-08-30T13:44:11;7.05;;;1.70;;
65045;SDS011;54657;52.022;5.534;2023-08-30T13:46:38;9.70;;;1.67;;
65045;SDS011;54657;52.022;5.534;2023-08-30T13:49:03;5.38;;;1.63;;
65045;SDS011;54657;52.022;5.534;2023-08-30T13:51:29;4.75;;;1.63;;
65045;SDS011;54657;52.022;5.534;2023-08-30T13:53:55;5.65;;;1.85;;
65045;SDS011;54657;52.022;5.534;2023-08-30T13:56:21;6.03;;;1.77;;
65045;SDS011;54657;52.022;5.534;2023-08-30T13:58:48;5.82;;;1.80;;
65045;SDS011;54657;52.022;5.534;2023-08-30T14:01:14;4.15;;;1.42;;
65045;SDS011;54657;52.022;5.534;2023-08-30T14:03:39;8.45;;;1.90;;
65045;SDS011;54657;52.022;5.534;2023-08-30T14:06:05;5.45;;;1.55;;
65045;SDS011;54657;52.022;5.534;2023-08-30T14:08:31;7.28;;;1.50;;
65045;SDS011;54657;52.022;5.534;2023-08-30T14:10:57;3.20;;;1.73;;
65045;SDS011;54657;52.022;5.534;2023-08-30T14:13:22;5.63;;;1.75;;
65045;SDS011;54657;52.022;5.534;2023-08-30T14:15:48;4.20;;;1.45;;
65045;SDS011;54657;52.022;5.534;2023-08-30T14:18:14;4.10;;;1.45;;
65045;SDS011;54657;52.022;5.534;2023-08-30T14:20:41;5.05;;;1.60;;
65045;SDS011;54657;52.022;5.534;2023-08-30T14:23:07;5.18;;;1.67;;
65045;SDS011;54657;52.022;5.534;2023-08-30T14:25:33;3.63;;;1.50;;
65045;SDS011;54657;52.022;5.534;2023-08-30T14:27:58;6.15;;;1.55;;
65045;SDS011;54657;52.022;5.534;2023-08-30T14:30:25;3.78;;;1.48;;
65045;SDS011;54657;52.022;5.534;2023-08-30T14:32:51;3.85;;;1.38;;
65045;SDS011;54657;52.022;5.534;2023-08-30T14:35:17;5.53;;;1.40;;
65045;SDS011;54657;52.022;5.534;2023-08-30T14:37:45;2.97;;;1.05;;
65045;SDS011;54657;52.022;5.534;2023-08-30T14:40:12;2.40;;;1.17;;
65045;SDS011;54657;52.022;5.534;2023-08-30T14:42:38;2.60;;;1.00;;
65045;SDS011;54657;52.022;5.534;2023-08-30T14:45:04;3.03;;;1.20;;
65045;SDS011;54657;52.022;5.534;2023-08-30T14:47:32;1.45;;;1.20;;